Terminal Aerodrome Forecast
Issued by NWS

Home | Current Version | Previous Version | Text Only | Print | Product List | Glossary On
Versions: 1 2 3 4 5 6 7 8 9 10 11 12 13 14 15
000
FTUS44 KLZK 301700 RRA
TAFBPK
TAF
KBPK 301747Z 3018/3118 19006KT P6SM VCSH BKN070 BKN120
     FM302200 30010G18KT P6SM SCT060
     FM310500 32007KT P6SM BKN035
     FM311500 33010G18KT P6SM SCT040=

USA.gov is the U.S. government's official web portal to all federal, state and local government web resources and services.